createdAt,value
2023-01-04T00:04:02.828Z,-9.55
2023-01-04T00:09:08.045Z,-9.49
2023-01-04T00:14:13.467Z,-9.41
2023-01-04T00:19:18.555Z,-9.33
2023-01-04T00:24:23.669Z,-9.24
2023-01-04T00:29:28.846Z,-9.11
2023-01-04T00:34:33.976Z,-9.02
2023-01-04T00:39:38.619Z,-8.89
2023-01-04T00:44:43.773Z,-8.78
2023-01-04T00:49:48.775Z,-8.67
2023-01-04T00:54:53.811Z,-8.52
2023-01-04T01:00:00.046Z,-8.38
2023-01-04T01:05:05.272Z,-8.24
2023-01-04T01:10:10.580Z,-8.06
2023-01-04T01:15:15.693Z,-7.73
2023-01-04T01:20:20.714Z,-7.51
2023-01-04T01:25:25.787Z,-7.30
2023-01-04T01:30:31.780Z,-7.10
2023-01-04T01:35:37.600Z,-6.87
2023-01-04T01:40:47.107Z,-6.65
2023-01-04T01:46:00.458Z,-6.41
2023-01-04T01:51:08.293Z,-6.19
2023-01-04T01:56:14.270Z,-5.98
2023-01-04T02:01:20.023Z,-5.78
2023-01-04T02:06:32.993Z,-5.62
2023-01-04T02:11:38.139Z,-5.41
2023-01-04T02:17:11.196Z,-5.19
2023-01-04T02:22:53.918Z,-4.94
2023-01-04T02:28:05.674Z,-4.70
2023-01-04T02:33:33.387Z,-4.44
2023-01-04T02:38:44.296Z,-4.17
2023-01-04T02:44:12.760Z,-4.01
2023-01-04T02:49:37.075Z,-3.85
2023-01-04T02:54:43.578Z,-3.65
2023-01-04T03:00:01.497Z,-3.46
2023-01-04T03:05:39.384Z,-3.30
2023-01-04T03:10:58.132Z,-3.17
2023-01-04T03:16:05.535Z,-3.01
2023-01-04T03:21:13.611Z,-2.86
2023-01-04T03:27:08.420Z,-2.69
2023-01-04T03:32:33.357Z,-2.57
2023-01-04T03:38:19.067Z,-2.43
2023-01-04T03:43:49.529Z,-2.31
2023-01-04T03:49:17.656Z,-2.22
2023-01-04T03:54:32.084Z,-2.15
2023-01-04T03:59:41.287Z,-2.05
2023-01-04T04:05:05.971Z,-1.94
2023-01-04T04:10:12.084Z,-1.82
2023-01-04T04:15:17.839Z,-1.65
2023-01-04T04:20:23.094Z,-1.45
2023-01-04T04:25:27.743Z,-1.31
2023-01-04T04:30:32.897Z,-1.23
2023-01-04T04:35:37.995Z,-1.05
2023-01-04T04:41:02.430Z,-0.96
2023-01-04T04:46:07.790Z,-0.84
2023-01-04T04:51:13.103Z,-0.79
2023-01-04T04:56:18.562Z,-0.77
2023-01-04T05:01:24.147Z,-0.63
2023-01-04T05:06:30.896Z,-0.50
2023-01-04T05:11:54.136Z,-0.41
2023-01-04T05:16:59.449Z,-0.34
2023-01-04T05:22:04.695Z,-0.18
2023-01-04T05:27:10.177Z,-0.10
2023-01-04T05:32:15.662Z,-0.02
2023-01-04T05:37:21.389Z,0.10
2023-01-04T05:42:29.721Z,0.22
2023-01-04T05:47:35.407Z,0.32
2023-01-04T05:52:40.462Z,0.34
2023-01-04T05:57:45.727Z,0.41
2023-01-04T06:02:50.536Z,0.48
2023-01-04T06:07:56.371Z,0.56
2023-01-04T06:13:01.486Z,0.64
2023-01-04T06:18:10.030Z,0.69
2023-01-04T06:23:18.314Z,0.71
2023-01-04T06:28:24.667Z,0.73
2023-01-04T06:33:30.849Z,0.73
2023-01-04T06:38:36.235Z,0.80
2023-01-04T06:43:40.309Z,0.79
2023-01-04T06:48:45.279Z,0.78
2023-01-04T06:53:50.563Z,0.82
2023-01-04T06:58:55.235Z,0.83
2023-01-04T07:03:59.934Z,0.79
2023-01-04T07:09:04.630Z,0.73
2023-01-04T07:14:09.285Z,0.68
2023-01-04T07:19:13.997Z,0.63
2023-01-04T07:24:18.654Z,0.53
2023-01-04T07:29:23.887Z,0.44
2023-01-04T07:34:29.848Z,0.33
2023-01-04T07:39:35.173Z,0.26
2023-01-04T07:44:40.559Z,0.18
2023-01-04T07:49:45.983Z,0.07
2023-01-04T07:54:50.736Z,-0.03
2023-01-04T07:59:55.407Z,-0.14
2023-01-04T08:05:00.499Z,-0.22
2023-01-04T08:10:05.619Z,-0.31
2023-01-04T08:15:10.650Z,-0.42
2023-01-04T08:20:15.269Z,-0.46
2023-01-04T08:25:20.042Z,-0.52
2023-01-04T08:30:25.667Z,-0.51
2023-01-04T08:35:29.873Z,-0.59
2023-01-04T08:40:58.061Z,-0.67
2023-01-04T08:45:59.122Z,-0.80
2023-01-04T08:51:13.172Z,-0.90
2023-01-04T08:56:18.176Z,-1.02
2023-01-04T09:01:22.980Z,-1.15
2023-01-04T09:06:28.791Z,-1.27
2023-01-04T09:11:33.782Z,-1.41
2023-01-04T09:16:40.141Z,-1.54
2023-01-04T09:21:45.036Z,-1.63
2023-01-04T09:26:50.514Z,-1.71
2023-01-04T09:31:55.359Z,-1.79
2023-01-04T09:36:59.827Z,-1.91
2023-01-04T09:42:08.297Z,-1.98
2023-01-04T09:47:39.739Z,-2.10
2023-01-04T09:53:03.732Z,-2.21
2023-01-04T09:58:27.161Z,-2.32
2023-01-04T10:03:40.240Z,-2.40
2023-01-04T10:08:46.451Z,-2.49
2023-01-04T10:14:21.829Z,-2.57
2023-01-04T10:25:27.900Z,-2.70
2023-01-04T10:30:38.048Z,-2.67
2023-01-04T10:35:45.970Z,-2.72
2023-01-04T10:40:50.913Z,-2.74
2023-01-04T10:45:54.591Z,-2.78
2023-01-04T10:51:07.118Z,-2.82
2023-01-04T10:56:24.877Z,-2.86
2023-01-04T11:01:36.962Z,-2.88
2023-01-04T11:06:49.770Z,-2.89
2023-01-04T11:11:57.558Z,-2.91
2023-01-04T11:17:07.069Z,-2.95
2023-01-04T11:22:18.465Z,-2.97
2023-01-04T11:27:30.311Z,-2.97
2023-01-04T11:32:48.054Z,-2.99
2023-01-04T11:37:51.846Z,-3.02
2023-01-04T11:43:31.461Z,-3.05
2023-01-04T11:48:38.156Z,-3.07
2023-01-04T11:53:42.945Z,-3.08
2023-01-04T11:59:19.234Z,-3.07
2023-01-04T12:04:29.089Z,-3.10
2023-01-04T12:09:36.265Z,-3.15
2023-01-04T12:14:47.365Z,-3.24
2023-01-04T12:19:55.938Z,-3.50
2023-01-04T12:25:01.228Z,-3.77
2023-01-04T12:30:10.098Z,-3.95
2023-01-04T12:35:51.801Z,-4.11
2023-01-04T12:40:58.537Z,-4.25
2023-01-04T12:46:54.352Z,-4.26
2023-01-04T12:52:43.037Z,-4.43
2023-01-04T12:57:50.884Z,-4.58
2023-01-04T13:03:22.368Z,-4.69
2023-01-04T13:08:28.575Z,-4.80
2023-01-04T13:13:43.637Z,-4.87
2023-01-04T13:18:57.315Z,-4.90
2023-01-04T13:24:22.680Z,-4.99
2023-01-04T13:29:37.512Z,-5.01
2023-01-04T13:34:56.648Z,-5.10
2023-01-04T13:40:06.345Z,-5.19
2023-01-04T13:45:33.753Z,-5.25
2023-01-04T13:50:48.177Z,-5.27
2023-01-04T13:55:58.896Z,-5.27
2023-01-04T14:01:15.618Z,-5.30
2023-01-04T14:06:38.857Z,-5.32
2023-01-04T14:12:07.258Z,-5.40
2023-01-04T14:17:19.563Z,-5.47
2023-01-04T14:22:32.888Z,-5.54
2023-01-04T14:27:44.817Z,-5.49
2023-01-04T14:33:20.976Z,-5.39
2023-01-04T14:38:27.274Z,-5.35
2023-01-04T14:44:05.130Z,-5.27
2023-01-04T14:49:11.033Z,-5.29
2023-01-04T14:54:24.638Z,-5.33
2023-01-04T14:59:30.628Z,-5.48
2023-01-04T15:04:35.664Z,-5.52
2023-01-04T15:09:44.261Z,-5.49
2023-01-04T15:14:50.158Z,-5.41
2023-01-04T15:19:55.146Z,-5.41
2023-01-04T15:25:00.145Z,-5.40
2023-01-04T15:30:06.495Z,-5.35
2023-01-04T15:35:12.150Z,-5.27
2023-01-04T15:40:19.335Z,-5.18
2023-01-04T15:45:30.247Z,-5.17
2023-01-04T15:50:42.560Z,-5.14
2023-01-04T15:55:47.546Z,-5.21
2023-01-04T16:00:58.416Z,-5.34
2023-01-04T16:06:11.350Z,-5.40
2023-01-04T16:11:15.303Z,-5.55
2023-01-04T16:16:21.692Z,-5.70
2023-01-04T16:21:31.842Z,-5.78
2023-01-04T16:26:36.811Z,-5.97
2023-01-04T16:31:44.245Z,-6.07
2023-01-04T16:36:52.012Z,-6.22
2023-01-04T16:41:57.104Z,-6.32
2023-01-04T16:47:02.098Z,-6.38
2023-01-04T16:52:12.722Z,-6.40
2023-01-04T16:57:17.708Z,-6.50
2023-01-04T17:02:24.031Z,-6.52
2023-01-04T17:07:35.509Z,-6.44
2023-01-04T17:12:48.744Z,-6.39
2023-01-04T17:17:53.464Z,-6.53
2023-01-04T17:22:57.760Z,-6.62
2023-01-04T17:28:02.086Z,-6.73
2023-01-04T17:33:06.758Z,-6.78
2023-01-04T17:38:11.717Z,-6.80
2023-01-04T17:43:16.072Z,-6.80
2023-01-04T17:48:20.361Z,-6.76
2023-01-04T17:53:25.423Z,-6.74
2023-01-04T17:58:31.002Z,-6.65
2023-01-04T18:03:35.584Z,-6.56
2023-01-04T18:08:40.222Z,-6.54
2023-01-04T18:13:46.942Z,-6.59
2023-01-04T18:18:50.416Z,-6.64
2023-01-04T18:24:34.593Z,-6.69
2023-01-04T18:29:25.497Z,-6.76
2023-01-04T18:34:30.203Z,-6.87
2023-01-04T18:39:34.904Z,-6.93
2023-01-04T18:44:45.654Z,-7.03
2023-01-04T18:49:52.256Z,-7.11
2023-01-04T18:54:56.851Z,-7.24
2023-01-04T19:00:01.812Z,-7.34
2023-01-04T19:05:06.820Z,-7.41
2023-01-04T19:10:11.329Z,-7.43
2023-01-04T19:15:17.429Z,-7.43
2023-01-04T19:20:22.098Z,-7.42
2023-01-04T19:25:28.706Z,-7.46
2023-01-04T19:30:33.617Z,-7.45
2023-01-04T19:35:38.043Z,-7.42
2023-01-04T19:40:41.543Z,-7.48
2023-01-04T19:45:46.238Z,-7.62
2023-01-04T19:51:02.282Z,-7.65
2023-01-04T19:56:07.338Z,-7.75
2023-01-04T20:01:15.194Z,-7.73
2023-01-04T20:06:21.479Z,-7.76
2023-01-04T20:11:26.050Z,-7.82
2023-01-04T20:16:31.152Z,-7.86
2023-01-04T20:21:35.928Z,-7.89
2023-01-04T20:26:41.689Z,-7.87
2023-01-04T20:31:48.225Z,-7.88
2023-01-04T20:36:51.732Z,-7.85
2023-01-04T20:42:14.780Z,-7.82
2023-01-04T20:47:19.669Z,-7.82
2023-01-04T20:52:24.349Z,-7.77
2023-01-04T20:57:28.600Z,-7.82
2023-01-04T21:02:37.887Z,-7.88
2023-01-04T21:07:42.570Z,-7.88
2023-01-04T21:12:46.658Z,-7.88
2023-01-04T21:17:50.729Z,-7.95
2023-01-04T21:22:54.265Z,-8.03
2023-01-04T21:28:01.864Z,-8.08
2023-01-04T21:33:06.505Z,-8.16
2023-01-04T21:38:12.562Z,-8.17
2023-01-04T21:43:20.733Z,-8.18
2023-01-04T21:48:26.361Z,-8.18
2023-01-04T21:53:34.566Z,-8.13
2023-01-04T21:58:38.887Z,-8.07
2023-01-04T22:03:43.841Z,-8.07
2023-01-04T22:08:48.242Z,-8.11
2023-01-04T22:13:52.332Z,-8.15
2023-01-04T22:18:56.583Z,-8.23
2023-01-04T22:24:01.459Z,-8.27
2023-01-04T22:29:06.163Z,-8.31
2023-01-04T22:34:10.820Z,-8.37
2023-01-04T22:39:15.418Z,-8.39
2023-01-04T22:44:19.561Z,-8.48
2023-01-04T22:49:24.332Z,-8.49
2023-01-04T22:54:29.013Z,-8.46
2023-01-04T22:59:33.033Z,-8.38
2023-01-04T23:04:37.068Z,-8.31
2023-01-04T23:09:42.040Z,-8.37
2023-01-04T23:14:46.834Z,-8.44
2023-01-04T23:19:50.844Z,-8.52
2023-01-04T23:24:54.938Z,-8.57
2023-01-04T23:29:58.957Z,-8.57
2023-01-04T23:35:02.522Z,-8.61
2023-01-04T23:40:07.691Z,-8.64
2023-01-04T23:45:12.495Z,-8.67
2023-01-04T23:50:17.552Z,-8.71
2023-01-04T23:55:21.706Z,-8.70
